createdAt,value
2022-08-25T00:00:23.428Z,20.51
2022-08-25T00:03:07.245Z,20.46
2022-08-25T00:05:36.536Z,20.43
2022-08-25T00:08:08.387Z,20.41
2022-08-25T00:10:39.314Z,20.39
2022-08-25T00:13:08.064Z,20.35
2022-08-25T00:15:36.960Z,20.32
2022-08-25T00:18:05.932Z,20.27
2022-08-25T00:20:49.393Z,20.26
2022-08-25T00:23:19.481Z,20.26
2022-08-25T00:25:48.839Z,20.29
2022-08-25T00:28:17.892Z,20.34
2022-08-25T00:30:46.274Z,20.36
2022-08-25T00:33:14.951Z,20.35
2022-08-25T00:35:44.416Z,20.34
2022-08-25T00:38:13.573Z,20.34
2022-08-25T00:40:42.619Z,20.32
2022-08-25T00:43:11.849Z,20.29
2022-08-25T00:45:40.796Z,20.27
2022-08-25T00:48:09.131Z,20.23
2022-08-25T00:50:37.559Z,20.18
2022-08-25T00:53:08.696Z,20.15
2022-08-25T00:55:40.034Z,20.12
2022-08-25T00:58:14.781Z,20.07
2022-08-25T01:00:47.585Z,20.03
2022-08-25T01:03:19.280Z,19.99
2022-08-25T01:05:49.147Z,19.96
2022-08-25T01:08:21.182Z,19.95
2022-08-25T01:10:50.677Z,19.94
2022-08-25T01:13:23.933Z,19.91
2022-08-25T01:15:55.617Z,19.89
2022-08-25T01:18:24.708Z,19.87
2022-08-25T01:20:57.622Z,19.82
2022-08-25T01:23:27.020Z,19.77
2022-08-25T01:26:19.870Z,19.73
2022-08-25T01:29:16.009Z,19.68
2022-08-25T01:31:45.286Z,19.63
2022-08-25T01:34:14.195Z,19.56
2022-08-25T01:36:44.201Z,19.48
2022-08-25T01:39:13.529Z,19.41
2022-08-25T01:42:09.908Z,19.36
2022-08-25T01:44:42.166Z,19.29
2022-08-25T01:47:11.503Z,19.21
2022-08-25T01:49:40.191Z,19.16
2022-08-25T01:52:15.187Z,19.11
2022-08-25T01:54:43.644Z,19.06
2022-08-25T01:57:12.471Z,19.01
2022-08-25T01:59:41.401Z,18.98
2022-08-25T02:02:10.542Z,18.96
2022-08-25T02:04:40.690Z,18.95
2022-08-25T02:07:12.961Z,18.95
2022-08-25T02:09:41.647Z,18.92
2022-08-25T02:12:10.025Z,18.88
2022-08-25T02:14:38.381Z,18.83
2022-08-25T02:17:07.161Z,18.78
2022-08-25T02:19:35.687Z,18.75
2022-08-25T02:22:04.188Z,18.73
2022-08-25T02:24:32.583Z,18.69
2022-08-25T02:27:01.371Z,18.64
2022-08-25T02:29:29.931Z,18.58
2022-08-25T02:31:59.049Z,18.50
2022-08-25T02:34:27.757Z,18.46
2022-08-25T02:36:56.111Z,18.44
2022-08-25T02:39:24.773Z,18.41
2022-08-25T02:41:53.167Z,18.38
2022-08-25T02:44:21.514Z,18.33
2022-08-25T02:46:49.852Z,18.26
2022-08-25T02:49:18.843Z,18.17
2022-08-25T02:51:47.277Z,18.11
2022-08-25T02:54:16.416Z,18.06
2022-08-25T02:56:44.786Z,18.00
2022-08-25T02:59:13.141Z,17.94
2022-08-25T03:01:41.598Z,17.89
2022-08-25T03:04:09.995Z,17.89
2022-08-25T03:06:38.605Z,17.88
2022-08-25T03:09:07.192Z,17.87
2022-08-25T03:11:38.441Z,17.83
2022-08-25T03:14:09.676Z,17.65
2022-08-25T03:16:38.393Z,17.48
2022-08-25T03:19:07.140Z,17.35
2022-08-25T03:21:38.432Z,17.30
2022-08-25T03:24:07.146Z,17.31
2022-08-25T03:26:53.786Z,17.34
2022-08-25T03:29:28.234Z,17.37
2022-08-25T03:32:00.665Z,17.41
2022-08-25T03:34:30.522Z,17.47
2022-08-25T03:36:59.918Z,17.50
2022-08-25T03:39:29.159Z,17.50
2022-08-25T03:41:57.651Z,17.48
2022-08-25T03:44:26.091Z,17.41
2022-08-25T03:46:54.626Z,17.37
2022-08-25T03:49:24.413Z,17.36
2022-08-25T03:51:54.130Z,17.41
2022-08-25T03:54:25.188Z,17.44
2022-08-25T03:56:53.766Z,17.49
2022-08-25T03:59:22.232Z,17.43
2022-08-25T04:01:54.805Z,17.30
2022-08-25T04:04:24.072Z,17.17
2022-08-25T04:06:53.223Z,17.08
2022-08-25T04:09:21.933Z,17.02
2022-08-25T04:11:53.277Z,16.93
2022-08-25T04:14:23.901Z,16.92
2022-08-25T04:16:53.262Z,16.95
2022-08-25T04:19:22.453Z,17.04
2022-08-25T04:21:52.167Z,17.14
2022-08-25T04:24:25.887Z,17.22
2022-08-25T04:26:54.463Z,17.35
2022-08-25T04:29:25.299Z,17.47
2022-08-25T04:31:55.249Z,17.58
2022-08-25T04:34:30.555Z,17.65
2022-08-25T04:37:03.149Z,17.70
2022-08-25T04:39:32.416Z,17.73
2022-08-25T04:42:01.526Z,17.77
2022-08-25T04:44:31.092Z,17.79
2022-08-25T04:47:01.558Z,17.86
2022-08-25T04:49:30.166Z,17.94
2022-08-25T04:51:59.478Z,18.01
2022-08-25T04:54:28.801Z,18.08
2022-08-25T04:57:04.856Z,18.12
2022-08-25T04:59:33.545Z,18.17
2022-08-25T05:02:03.415Z,18.26
2022-08-25T05:04:36.711Z,18.33
2022-08-25T05:07:06.035Z,18.40
2022-08-25T05:09:34.653Z,18.48
2022-08-25T05:12:04.561Z,18.58
2022-08-25T05:14:33.268Z,18.67
2022-08-25T05:17:02.580Z,18.76
2022-08-25T05:19:31.953Z,18.84
2022-08-25T05:22:00.421Z,18.91
2022-08-25T05:24:29.810Z,19.00
2022-08-25T05:26:58.584Z,19.07
2022-08-25T05:29:27.385Z,19.14
2022-08-25T05:31:56.165Z,19.21
2022-08-25T05:34:25.701Z,19.31
2022-08-25T05:36:54.816Z,19.42
2022-08-25T05:39:23.247Z,19.51
2022-08-25T05:41:55.311Z,19.62
2022-08-25T05:44:23.712Z,19.72
2022-08-25T05:46:52.756Z,19.83
2022-08-25T05:49:21.253Z,19.94
2022-08-25T05:51:49.791Z,20.06
2022-08-25T05:54:18.656Z,20.18
2022-08-25T05:56:47.245Z,20.30
2022-08-25T05:59:15.709Z,20.41
2022-08-25T06:02:03.220Z,20.52
2022-08-25T06:04:32.594Z,20.62
2022-08-25T06:07:01.110Z,20.74
2022-08-25T06:09:29.784Z,20.86
2022-08-25T06:11:58.315Z,20.97
2022-08-25T06:14:27.795Z,21.11
2022-08-25T06:16:57.172Z,21.26
2022-08-25T06:19:25.591Z,21.38
2022-08-25T06:21:56.180Z,21.50
2022-08-25T06:24:26.355Z,21.62
2022-08-25T06:26:56.351Z,21.73
2022-08-25T06:29:25.401Z,21.85
2022-08-25T06:31:54.271Z,21.97
2022-08-25T06:34:24.221Z,22.07
2022-08-25T06:36:53.228Z,22.19
2022-08-25T06:39:22.438Z,22.31
2022-08-25T06:41:56.655Z,22.43
2022-08-25T06:44:27.970Z,22.55
2022-08-25T06:46:57.728Z,22.68
2022-08-25T06:49:31.878Z,22.85
2022-08-25T06:52:02.052Z,22.97
2022-08-25T06:54:30.479Z,23.08
2022-08-25T06:56:58.875Z,23.19
2022-08-25T06:59:32.039Z,23.33
2022-08-25T07:02:03.714Z,23.47
2022-08-25T07:04:34.216Z,23.61
2022-08-25T07:07:03.605Z,23.76
2022-08-25T07:09:35.220Z,23.93
2022-08-25T07:12:05.980Z,24.05
2022-08-25T07:14:36.584Z,24.18
2022-08-25T07:17:11.988Z,24.31
2022-08-25T07:19:41.409Z,24.43
2022-08-25T07:22:09.837Z,24.53
2022-08-25T07:24:38.254Z,24.63
2022-08-25T07:27:07.213Z,24.72
2022-08-25T07:29:42.626Z,24.83
2022-08-25T07:32:11.284Z,24.94
2022-08-25T07:34:58.416Z,25.03
2022-08-25T07:37:48.123Z,25.15
2022-08-25T07:40:22.703Z,25.28
2022-08-25T07:42:55.431Z,25.45
2022-08-25T07:45:31.461Z,25.60
2022-08-25T07:48:05.632Z,25.71
2022-08-25T07:50:35.221Z,25.83
2022-08-25T07:53:03.819Z,25.96
2022-08-25T07:55:33.576Z,26.10
2022-08-25T07:58:04.111Z,26.27
2022-08-25T08:00:34.408Z,26.48
2022-08-25T08:03:07.007Z,26.72
2022-08-25T08:05:40.801Z,26.99
2022-08-25T08:08:10.959Z,27.21
2022-08-25T08:11:03.183Z,27.55
2022-08-25T08:13:31.427Z,28.03
2022-08-25T08:16:00.027Z,28.35
2022-08-25T08:18:28.464Z,28.71
2022-08-25T08:20:56.890Z,29.02
2022-08-25T08:23:28.116Z,29.30
2022-08-25T08:25:57.379Z,29.67
2022-08-25T08:28:28.093Z,29.93
2022-08-25T08:30:56.771Z,30.24
2022-08-25T08:33:26.587Z,30.54
2022-08-25T08:36:05.449Z,30.87
2022-08-25T08:38:36.349Z,31.14
2022-08-25T08:44:53.483Z,31.78
2022-08-25T08:47:28.908Z,31.92
2022-08-25T08:50:03.790Z,32.25
2022-08-25T08:52:49.308Z,32.65
2022-08-25T08:55:25.910Z,32.94
2022-08-25T08:57:57.659Z,33.17
2022-08-25T09:00:28.935Z,33.41
2022-08-25T09:03:10.251Z,33.56
2022-08-25T09:05:51.843Z,33.79
2022-08-25T09:08:20.707Z,34.05
2022-08-25T09:10:54.222Z,34.43
2022-08-25T09:13:33.518Z,34.70
2022-08-25T09:16:43.850Z,34.88
2022-08-25T09:19:41.836Z,35.14
2022-08-25T09:22:40.526Z,35.05
2022-08-25T09:25:54.097Z,35.29
2022-08-25T09:28:51.440Z,35.40
2022-08-25T09:31:27.628Z,35.83
2022-08-25T09:34:01.243Z,36.19
2022-08-25T09:36:37.445Z,36.47
2022-08-25T09:39:08.186Z,36.64
2022-08-25T09:41:47.200Z,36.66
2022-08-25T09:44:39.240Z,36.47
2022-08-25T09:47:24.233Z,36.36
2022-08-25T09:50:01.448Z,36.41
2022-08-25T09:52:37.745Z,36.34
2022-08-25T09:55:06.090Z,36.55
2022-08-25T09:57:36.568Z,36.79
2022-08-25T10:00:14.280Z,36.97
2022-08-25T10:02:44.759Z,37.01
2022-08-25T10:05:26.171Z,36.91
2022-08-25T10:08:03.549Z,36.82
2022-08-25T10:10:41.976Z,37.05
2022-08-25T10:13:22.708Z,37.11
2022-08-25T10:16:24.599Z,37.27
2022-08-25T10:19:13.961Z,37.48
2022-08-25T10:21:43.787Z,37.47
2022-08-25T10:24:14.222Z,37.42
2022-08-25T10:26:55.176Z,37.35
2022-08-25T10:29:49.647Z,37.16
2022-08-25T10:32:18.335Z,36.95
2022-08-25T10:34:56.651Z,36.93
2022-08-25T10:37:57.497Z,37.13
2022-08-25T10:40:44.794Z,37.19
2022-08-25T10:43:19.459Z,37.03
2022-08-25T10:46:00.571Z,37.13
2022-08-25T10:48:55.079Z,37.17
2022-08-25T10:51:45.994Z,36.91
2022-08-25T10:54:38.821Z,36.59
2022-08-25T10:57:27.925Z,36.18
2022-08-25T11:00:11.888Z,36.52
2022-08-25T11:03:23.173Z,37.07
2022-08-25T11:06:01.927Z,37.00
2022-08-25T11:08:40.303Z,37.06
2022-08-25T11:11:38.237Z,37.40
2022-08-25T11:14:12.259Z,37.61
2022-08-25T11:16:55.600Z,37.51
2022-08-25T11:19:53.131Z,37.48
2022-08-25T11:22:41.514Z,37.35
2022-08-25T11:25:31.715Z,37.29
2022-08-25T11:28:07.048Z,37.49
2022-08-25T11:30:38.532Z,37.53
2022-08-25T11:33:14.222Z,37.68
2022-08-25T11:35:51.414Z,37.85
2022-08-25T11:38:38.350Z,38.07
2022-08-25T11:41:22.455Z,38.15
2022-08-25T11:44:26.061Z,38.20
2022-08-25T11:47:22.845Z,37.93
2022-08-25T11:49:58.527Z,38.04
2022-08-25T11:52:32.792Z,38.10
2022-08-25T11:55:17.817Z,37.90
2022-08-25T11:58:12.860Z,37.76
2022-08-25T12:00:43.825Z,37.68
2022-08-25T12:03:37.055Z,37.83
2022-08-25T12:06:28.009Z,38.30
2022-08-25T12:09:06.024Z,38.49
2022-08-25T12:11:55.252Z,38.71
2022-08-25T12:14:28.157Z,38.53
2022-08-25T12:16:57.039Z,38.17
2022-08-25T12:19:31.632Z,37.82
2022-08-25T12:22:03.935Z,37.78
2022-08-25T12:25:08.930Z,38.12
2022-08-25T12:27:48.692Z,38.15
2022-08-25T12:30:39.238Z,38.06
2022-08-25T12:33:11.022Z,38.35
2022-08-25T12:36:05.499Z,38.71
2022-08-25T12:38:50.930Z,38.87
2022-08-25T12:41:27.488Z,38.82
2022-08-25T12:44:39.917Z,38.98
2022-08-25T12:47:08.230Z,39.25
2022-08-25T12:49:36.708Z,39.08
2022-08-25T12:52:11.494Z,38.78
2022-08-25T12:54:48.021Z,38.87
2022-08-25T12:57:35.171Z,38.64
2022-08-25T13:00:21.794Z,38.35
2022-08-25T13:03:05.361Z,38.09
2022-08-25T13:05:48.213Z,37.70
2022-08-25T13:08:51.638Z,37.52
2022-08-25T13:12:13.962Z,37.70
2022-08-25T13:14:44.459Z,37.48
2022-08-25T13:17:25.944Z,37.33
2022-08-25T13:20:15.128Z,37.13
2022-08-25T13:23:03.960Z,37.05
2022-08-25T13:25:34.857Z,37.06
2022-08-25T13:28:06.758Z,37.22
2022-08-25T13:30:43.208Z,37.37
2022-08-25T13:33:24.071Z,37.03
2022-08-25T13:36:15.333Z,36.89
2022-08-25T13:38:46.661Z,37.00
2022-08-25T13:41:29.278Z,37.11
2022-08-25T13:43:59.763Z,36.97
2022-08-25T13:46:31.983Z,36.97
2022-08-25T13:49:08.815Z,37.13
2022-08-25T13:51:42.208Z,37.02
2022-08-25T13:54:26.133Z,36.71
2022-08-25T13:56:55.181Z,36.41
2022-08-25T13:59:40.077Z,36.42
2022-08-25T14:02:19.449Z,36.17
2022-08-25T14:04:52.712Z,35.92
2022-08-25T14:07:21.662Z,35.83
2022-08-25T14:10:05.184Z,35.83
2022-08-25T14:12:40.222Z,35.89
2022-08-25T14:15:17.680Z,36.06
2022-08-25T14:17:59.957Z,36.41
2022-08-25T14:20:31.636Z,36.41
2022-08-25T14:23:05.807Z,36.20
2022-08-25T14:25:40.459Z,36.20
2022-08-25T14:28:14.979Z,36.01
2022-08-25T14:31:00.016Z,35.67
2022-08-25T14:33:31.744Z,35.52
2022-08-25T14:36:02.982Z,35.42
2022-08-25T14:38:32.637Z,35.36
2022-08-25T14:41:01.437Z,35.20
2022-08-25T14:43:31.907Z,35.23
2022-08-25T14:46:05.958Z,35.31
2022-08-25T14:48:44.384Z,35.30
2022-08-25T14:51:16.002Z,35.29
2022-08-25T14:53:44.720Z,35.28
2022-08-25T14:56:14.258Z,35.08
2022-08-25T14:58:51.289Z,34.93
2022-08-25T15:01:28.931Z,34.78
2022-08-25T15:04:06.608Z,34.57
2022-08-25T15:06:37.240Z,34.38
2022-08-25T15:09:13.395Z,34.17
2022-08-25T15:11:51.332Z,34.02
2022-08-25T15:14:28.963Z,33.86
2022-08-25T15:17:03.866Z,33.58
2022-08-25T15:19:32.778Z,33.48
2022-08-25T15:22:01.369Z,33.48
2022-08-25T15:24:29.897Z,33.41
2022-08-25T15:27:02.062Z,33.24
2022-08-25T15:29:32.129Z,33.05
2022-08-25T15:32:01.939Z,32.84
2022-08-25T15:34:31.233Z,32.63
2022-08-25T15:37:10.348Z,32.46
2022-08-25T15:39:40.486Z,32.34
2022-08-25T15:42:12.411Z,32.17
2022-08-25T15:44:41.540Z,32.03
2022-08-25T15:47:12.571Z,31.88
2022-08-25T15:49:41.334Z,31.76
2022-08-25T15:52:10.291Z,31.63
2022-08-25T15:54:38.881Z,31.49
2022-08-25T15:57:13.966Z,31.35
2022-08-25T15:59:53.729Z,31.21
2022-08-25T16:02:22.846Z,31.12
2022-08-25T16:04:53.296Z,31.01
2022-08-25T16:07:21.751Z,30.90
2022-08-25T16:09:51.217Z,30.77
2022-08-25T16:12:19.576Z,30.64
2022-08-25T16:14:48.296Z,30.52
2022-08-25T16:17:16.864Z,30.41
2022-08-25T16:19:46.381Z,30.29
2022-08-25T16:22:14.908Z,30.16
2022-08-25T16:24:47.074Z,30.05
2022-08-25T16:27:15.682Z,29.91
2022-08-25T16:29:44.668Z,29.79
2022-08-25T16:32:14.428Z,29.67
2022-08-25T16:34:44.225Z,29.59
2022-08-25T16:37:13.813Z,29.49
2022-08-25T16:39:46.134Z,29.41
2022-08-25T16:42:15.017Z,29.31
2022-08-25T16:44:43.495Z,29.21
2022-08-25T16:47:17.741Z,29.08
2022-08-25T16:49:49.327Z,28.90
2022-08-25T16:52:36.488Z,28.72
2022-08-25T16:55:15.019Z,28.54
2022-08-25T16:57:50.150Z,28.33
2022-08-25T17:00:22.709Z,28.16
2022-08-25T17:02:58.663Z,28.02
2022-08-25T17:05:29.383Z,27.87
2022-08-25T17:08:19.959Z,27.72
2022-08-25T17:10:48.668Z,27.57
2022-08-25T17:13:17.497Z,27.44
2022-08-25T17:15:49.295Z,27.33
2022-08-25T17:18:21.410Z,27.22
2022-08-25T17:21:00.145Z,27.11
2022-08-25T17:23:29.552Z,26.98
2022-08-25T17:25:58.269Z,26.92
2022-08-25T17:28:27.877Z,26.87
2022-08-25T17:31:00.240Z,26.83
2022-08-25T17:33:28.754Z,26.79
2022-08-25T17:35:58.179Z,26.77
2022-08-25T17:38:28.756Z,26.68
2022-08-25T17:41:02.891Z,26.60
2022-08-25T17:43:37.471Z,26.48
2022-08-25T17:46:06.492Z,26.37
2022-08-25T17:48:36.973Z,26.26
2022-08-25T17:51:07.091Z,26.16
2022-08-25T17:53:37.519Z,26.06
2022-08-25T17:56:14.363Z,26.00
2022-08-25T17:58:43.081Z,25.97
2022-08-25T18:01:17.847Z,25.96
2022-08-25T18:03:46.762Z,25.96
2022-08-25T18:06:16.174Z,25.98
2022-08-25T18:08:50.266Z,25.96
2022-08-25T18:11:23.802Z,25.95
2022-08-25T18:13:54.522Z,25.92
2022-08-25T18:16:23.547Z,25.89
2022-08-25T18:18:52.778Z,25.85
2022-08-25T18:21:22.804Z,25.80
2022-08-25T18:23:51.763Z,25.75
2022-08-25T18:26:24.671Z,25.69
2022-08-25T18:28:53.964Z,25.61
2022-08-25T18:31:22.386Z,25.52
2022-08-25T18:33:52.195Z,25.45
2022-08-25T18:36:21.370Z,25.38
2022-08-25T18:39:08.848Z,25.32
2022-08-25T18:41:40.868Z,25.28
2022-08-25T18:44:11.084Z,25.24
2022-08-25T18:46:40.259Z,25.23
2022-08-25T18:49:09.136Z,25.22
2022-08-25T18:51:37.916Z,25.23
2022-08-25T18:54:07.113Z,25.21
2022-08-25T18:56:54.813Z,25.22
2022-08-25T18:59:23.671Z,25.19
2022-08-25T19:02:00.268Z,25.17
2022-08-25T19:04:32.111Z,25.16
2022-08-25T19:07:01.988Z,25.14
2022-08-25T19:09:32.293Z,25.14
2022-08-25T19:12:02.198Z,25.11
2022-08-25T19:14:31.047Z,25.07
2022-08-25T19:16:59.517Z,25.03
2022-08-25T19:19:29.553Z,25.01
2022-08-25T19:21:59.215Z,24.99
2022-08-25T19:24:28.839Z,24.95
2022-08-25T19:26:58.083Z,24.93
2022-08-25T19:29:26.621Z,24.90
2022-08-25T19:32:01.378Z,24.86
2022-08-25T19:34:33.993Z,24.84
2022-08-25T19:37:04.662Z,24.80
2022-08-25T19:39:35.618Z,24.76
2022-08-25T19:42:07.663Z,24.73
2022-08-25T19:44:36.882Z,24.71
2022-08-25T19:47:05.528Z,24.68
2022-08-25T19:49:39.116Z,24.65
2022-08-25T19:52:12.135Z,24.68
2022-08-25T19:54:45.935Z,24.68
2022-08-25T19:57:28.657Z,24.66
2022-08-25T20:00:09.447Z,24.61
2022-08-25T20:02:43.745Z,24.54
2022-08-25T20:05:12.791Z,24.47
2022-08-25T20:07:41.380Z,24.40
2022-08-25T20:10:14.329Z,24.37
2022-08-25T20:12:45.217Z,24.33
2022-08-25T20:15:16.657Z,24.28
2022-08-25T20:17:46.142Z,24.26
2022-08-25T20:20:18.722Z,24.22
2022-08-25T20:22:49.622Z,24.18
2022-08-25T20:25:25.415Z,24.16
2022-08-25T20:27:56.113Z,24.12
2022-08-25T20:30:27.930Z,24.07
2022-08-25T20:32:57.438Z,24.06
2022-08-25T20:35:27.438Z,24.03
2022-08-25T20:37:58.441Z,23.98
2022-08-25T20:40:28.784Z,23.96
2022-08-25T20:43:02.993Z,23.93
2022-08-25T20:45:31.771Z,23.89
2022-08-25T20:48:00.418Z,23.90
2022-08-25T20:50:28.907Z,23.92
2022-08-25T20:52:58.909Z,23.95
2022-08-25T20:55:29.891Z,23.96
2022-08-25T20:57:58.618Z,23.95
2022-08-25T21:00:28.297Z,23.88
2022-08-25T21:02:56.787Z,23.90
2022-08-25T21:05:25.292Z,23.84
2022-08-25T21:07:53.739Z,23.78
2022-08-25T21:10:22.488Z,23.74
2022-08-25T21:12:53.424Z,23.74
2022-08-25T21:15:22.108Z,23.74
2022-08-25T21:17:54.557Z,23.74
2022-08-25T21:20:24.238Z,23.71
2022-08-25T21:22:53.472Z,23.70
2022-08-25T21:25:25.481Z,23.70
2022-08-25T21:27:53.897Z,23.69
2022-08-25T21:30:22.411Z,23.68
2022-08-25T21:32:54.025Z,23.64
2022-08-25T21:35:24.854Z,23.60
2022-08-25T21:37:53.889Z,23.56
2022-08-25T21:40:23.383Z,23.55
2022-08-25T21:42:52.921Z,23.54
2022-08-25T21:45:21.900Z,23.50
2022-08-25T21:47:51.757Z,23.43
2022-08-25T21:50:21.392Z,23.37
2022-08-25T21:52:54.505Z,23.31
2022-08-25T21:55:24.012Z,23.25
2022-08-25T21:57:54.837Z,23.18
2022-08-25T22:00:24.252Z,23.07
2022-08-25T22:02:53.705Z,22.98
2022-08-25T22:05:22.668Z,22.90
2022-08-25T22:07:51.025Z,22.82
2022-08-25T22:10:20.675Z,22.75
2022-08-25T22:12:49.100Z,22.71
2022-08-25T22:15:18.466Z,22.67
2022-08-25T22:17:47.919Z,22.60
2022-08-25T22:20:18.241Z,22.56
2022-08-25T22:22:46.740Z,22.58
2022-08-25T22:25:15.266Z,22.64
2022-08-25T22:27:43.667Z,22.66
2022-08-25T22:30:13.880Z,22.69
2022-08-25T22:32:42.769Z,22.71
2022-08-25T22:35:14.210Z,22.75
2022-08-25T22:37:43.347Z,22.79
2022-08-25T22:40:12.410Z,22.77
2022-08-25T22:42:42.318Z,22.76
2022-08-25T22:45:13.375Z,22.75
2022-08-25T22:47:41.768Z,22.75
2022-08-25T22:50:10.371Z,22.74
2022-08-25T22:52:38.980Z,22.71
2022-08-25T22:55:11.188Z,22.71
2022-08-25T22:57:41.515Z,22.64
2022-08-25T23:00:14.248Z,22.53
2022-08-25T23:02:43.671Z,22.28
2022-08-25T23:05:14.336Z,21.98
2022-08-25T23:07:43.012Z,21.75
2022-08-25T23:10:13.710Z,21.53
2022-08-25T23:12:44.042Z,21.33
2022-08-25T23:15:13.184Z,21.18
2022-08-25T23:17:43.106Z,21.03
2022-08-25T23:20:30.144Z,20.89
2022-08-25T23:22:59.216Z,20.77
2022-08-25T23:25:27.679Z,20.69
2022-08-25T23:27:56.427Z,20.59
2022-08-25T23:30:27.249Z,20.49
2022-08-25T23:32:58.742Z,20.38
2022-08-25T23:35:27.278Z,20.30
2022-08-25T23:37:58.567Z,20.26
2022-08-25T23:40:27.848Z,20.27
2022-08-25T23:42:56.339Z,20.25
2022-08-25T23:45:24.662Z,20.22
2022-08-25T23:47:54.226Z,20.22
2022-08-25T23:50:22.514Z,20.14
2022-08-25T23:52:50.970Z,20.09
2022-08-25T23:55:19.739Z,20.04
2022-08-25T23:57:51.701Z,19.97
